Time;durP1;ratioP1;P1;durP2;ratioP2;P2;SDS_P1;SDS_P2;PMS_P1;PMS_P2;Temp;Humidity;BMP_temperature;BMP_pressure;BME280_temperature;BME280_humidity;BME280_pressure;Samples;Min_cycle;Max_cycle;Signal;HPM_P1;HPM_P2
2023/06/30 00:00:08;;;;;;;;;;;;;;;;;;4980018;28;20396;-85
2023/06/30 00:02:37;;;;;;;;;;;;;;;;;;4981823;28;19930;-85
2023/06/30 00:05:05;;;;;;;;;;;;;;;;;;4971461;28;19929;-85
2023/06/30 00:07:36;;;;;;;;;;;;;;;;;;4987233;28;19938;-85
2023/06/30 00:10:07;;;;;;;;;;;;;;;;;;4967604;28;19930;-86
2023/06/30 00:12:37;;;;;;;;;;;;;;;;;;4955597;28;19930;-83
2023/06/30 00:15:04;;;;;;;;;;;;;;;;;;4974256;28;20394;-86
2023/06/30 00:17:32;;;;;;;;;;;;;;;;;;4971997;28;20713;-82
2023/06/30 00:20:05;;;;;;;;;;;;;;;;;;4988806;28;19934;-87
2023/06/30 00:22:40;;;;;;;;;;;;;;;;;;4987009;28;20275;-89
2023/06/30 00:25:12;;;;;;;;;;;;;;;;;;4969812;28;19931;-86
2023/06/30 00:27:42;;;;;;;;;;;;;;;;;;4974285;28;19926;-86
2023/06/30 00:30:13;;;;;;;;;;;;;;;;;;4960684;28;19926;-86
2023/06/30 00:32:44;;;;;;;;;;;;;;;;;;4957825;28;19930;-86
2023/06/30 00:35:11;;;;;;;;;;;;;;;;;;4987867;28;19937;-85
2023/06/30 00:37:42;;;;;;;;;;;;;;;;;;4975199;28;19930;-85
2023/06/30 00:40:22;;;;;;;;;;;;;;;;;;4961288;28;19930;-84
2023/06/30 00:42:51;;;;;;;;;;;;;;;;;;4964593;28;19934;-84
2023/06/30 00:45:18;;;;;;;;;;;;;;;;;;4969654;28;19930;-85
2023/06/30 00:47:55;;;;;;;;;;;;;;;;;;4971748;28;19933;-88
2023/06/30 00:50:25;;;;;;;;;;;;;;;;;;4985776;28;19930;-86
2023/06/30 00:55:52;;;;;;;;;;;;;;;;;;4979158;28;19937;-82
2023/06/30 00:58:19;;;;;;;;;;;;;;;;;;4967738;28;19941;-85
2023/06/30 01:00:57;;;;;;;;;;;;;;;;;;4965696;28;20698;-87
2023/06/30 01:03:37;;;;;;;;;;;;;;;;;;4965188;28;19934;-86
2023/06/30 01:06:11;;;;;;;;;;;;;;;;;;4968729;28;19941;-84
2023/06/30 01:11:31;;;;;;;;;;;;;;;;;;4981546;28;19930;-85
2023/06/30 01:14:11;;;;;;;;;;;;;;;;;;4963558;28;19933;-86
2023/06/30 01:16:48;;;;;;;;;;;;;;;;;;4968624;28;19930;-86
2023/06/30 01:19:21;;;;;;;;;;;;;;;;;;4968993;28;19933;-87
2023/06/30 01:22:02;;;;;;;;;;;;;;;;;;4980999;28;20951;-88
2023/06/30 01:25:15;;;;;;;;;;;;;;;;;;4970017;28;20014;-87
2023/06/30 01:27:44;;;;;;;;;;;;;;;;;;4972233;28;20294;-85
2023/06/30 01:30:11;;;;;;;;;;;;;;;;;;4968090;28;19930;-86
2023/06/30 01:32:39;;;;;;;;;;;;;;;;;;4967390;28;19926;-83
2023/06/30 01:35:08;;;;;;;;;;;;;;;;;;4972971;28;20295;-84
2023/06/30 01:37:35;;;;;;;;;;;;;;;;;;4979345;28;20006;-86
2023/06/30 01:40:17;;;;;;;;;;;;;;;;;;4974331;28;19933;-89
2023/06/30 01:42:45;;;;;;;;;;;;;;;;;;4968332;28;20637;-85
2023/06/30 01:45:13;;;;;;;;;;;;;;;;;;4967116;28;19926;-85
2023/06/30 01:47:43;;;;;;;;;;;;;;;;;;4959695;28;19926;-86
2023/06/30 01:50:23;;;;;;;;;;;;;;;;;;4959072;28;19934;-88
2023/06/30 01:52:56;;;;;;;;;;;;;;;;;;4967598;28;20003;-87
2023/06/30 01:58:28;;;;;;;;;;;;;;;;;;4959266;28;19926;-89
2023/06/30 02:00:57;;;;;;;;;;;;;;;;;;4971811;28;19933;-82
2023/06/30 02:03:25;;;;;;;;;;;;;;;;;;4984037;28;20457;-87
2023/06/30 02:05:54;;;;;;;;;;;;;;;;;;4983806;28;20283;-85
2023/06/30 02:08:25;;;;;;;;;;;;;;;;;;4968965;28;19930;-85
2023/06/30 02:10:53;;;;;;;;;;;;;;;;;;4981099;28;20314;-85
2023/06/30 02:13:20;;;;;;;;;;;;;;;;;;4981298;28;19930;-85
2023/06/30 02:15:51;;;;;;;;;;;;;;;;;;4979334;28;19926;-88
2023/06/30 02:18:22;;;;;;;;;;;;;;;;;;4977826;28;20306;-85
2023/06/30 02:23:35;;;;;;;;;;;;;;;;;;4967194;28;19933;-85
2023/06/30 02:26:03;;;;;;;;;;;;;;;;;;4970285;28;20386;-86
2023/06/30 02:28:31;;;;;;;;;;;;;;;;;;4968579;28;19926;-85
2023/06/30 02:30:59;;;;;;;;;;;;;;;;;;4969201;28;19941;-86
2023/06/30 02:33:26;;;;;;;;;;;;;;;;;;4970694;28;19930;-86
2023/06/30 02:35:54;;;;;;;;;;;;;;;;;;4982723;28;19926;-85
2023/06/30 02:38:22;;;;;;;;;;;;;;;;;;4965594;28;19926;-85
2023/06/30 02:40:49;;;;;;;;;;;;;;;;;;4990146;28;19927;-84
2023/06/30 02:43:17;;;;;;;;;;;;;;;;;;4968388;28;19926;-85
2023/06/30 02:45:45;;;;;;;;;;;;;;;;;;4983331;28;19930;-85
2023/06/30 02:48:13;;;;;;;;;;;;;;;;;;4967250;28;19941;-86
2023/06/30 02:50:45;;;;;;;;;;;;;;;;;;4981725;28;19926;-85
2023/06/30 02:53:14;;;;;;;;;;;;;;;;;;4962106;28;19965;-84
2023/06/30 02:55:42;;;;;;;;;;;;;;;;;;4961897;28;20670;-83
2023/06/30 02:58:13;;;;;;;;;;;;;;;;;;4969514;28;19930;-85
2023/06/30 03:00:42;;;;;;;;;;;;;;;;;;4977198;28;20410;-84
2023/06/30 03:03:09;;;;;;;;;;;;;;;;;;4975344;28;19926;-83
2023/06/30 03:05:40;;;;;;;;;;;;;;;;;;4970426;28;20306;-85
2023/06/30 03:08:08;;;;;;;;;;;;;;;;;;4970160;28;19931;-84
2023/06/30 03:10:36;;;;;;;;;;;;;;;;;;4984064;28;19930;-84
2023/06/30 03:13:04;;;;;;;;;;;;;;;;;;4971105;28;20280;-84
2023/06/30 03:15:31;;;;;;;;;;;;;;;;;;4981974;28;19926;-84
2023/06/30 03:18:00;;;;;;;;;;;;;;;;;;4969135;28;19930;-83
2023/06/30 03:20:28;;;;;;;;;;;;;;;;;;4976416;28;19926;-84
2023/06/30 03:22:55;;;;;;;;;;;;;;;;;;4964502;28;20387;-85
2023/06/30 03:25:23;;;;;;;;;;;;;;;;;;4974017;28;19926;-84
2023/06/30 03:27:51;;;;;;;;;;;;;;;;;;4986694;28;19926;-84
2023/06/30 03:30:18;;;;;;;;;;;;;;;;;;4969082;28;19930;-83
2023/06/30 03:32:47;;;;;;;;;;;;;;;;;;4983645;28;19927;-83
2023/06/30 03:35:14;;;;;;;;;;;;;;;;;;4977665;28;19934;-83
2023/06/30 03:37:42;;;;;;;;;;;;;;;;;;4985826;28;19930;-83
2023/06/30 03:40:10;;;;;;;;;;;;;;;;;;4972909;28;19930;-83
2023/06/30 03:42:38;;;;;;;;;;;;;;;;;;4973105;28;19927;-84
2023/06/30 03:45:05;;;;;;;;;;;;;;;;;;4987085;28;19930;-85
2023/06/30 03:47:33;;;;;;;;;;;;;;;;;;4970344;28;19926;-85
2023/06/30 03:50:01;;;;;;;;;;;;;;;;;;4969213;28;20375;-84
2023/06/30 03:52:28;;;;;;;;;;;;;;;;;;4973116;28;19926;-84
2023/06/30 03:54:56;;;;;;;;;;;;;;;;;;4988439;28;19926;-84
2023/06/30 03:57:24;;;;;;;;;;;;;;;;;;4967190;28;20437;-86
2023/06/30 03:59:52;;;;;;;;;;;;;;;;;;4988262;28;19926;-85
2023/06/30 04:02:24;;;;;;;;;;;;;;;;;;4970418;28;19938;-86
2023/06/30 04:04:52;;;;;;;;;;;;;;;;;;4986510;28;19926;-86
2023/06/30 04:07:19;;;;;;;;;;;;;;;;;;4970118;28;19926;-85
2023/06/30 04:09:47;;;;;;;;;;;;;;;;;;4964667;28;19933;-85
2023/06/30 04:12:15;;;;;;;;;;;;;;;;;;4974533;28;19930;-84
2023/06/30 04:17:25;;;;;;;;;;;;;;;;;;4981407;28;21897;-85
2023/06/30 04:19:58;;;;;;;;;;;;;;;;;;4988996;28;19946;-89
2023/06/30 04:22:25;;;;;;;;;;;;;;;;;;4972593;28;19937;-84
2023/06/30 04:24:53;;;;;;;;;;;;;;;;;;4966731;28;20294;-84
2023/06/30 04:27:21;;;;;;;;;;;;;;;;;;4984599;28;19933;-85
2023/06/30 04:29:48;;;;;;;;;;;;;;;;;;4965197;28;19930;-84
2023/06/30 04:32:16;;;;;;;;;;;;;;;;;;4971934;28;19926;-85
2023/06/30 04:34:48;;;;;;;;;;;;;;;;;;4968490;28;19961;-86
2023/06/30 04:37:16;;;;;;;;;;;;;;;;;;4966058;28;19930;-85
2023/06/30 04:39:46;;;;;;;;;;;;;;;;;;4971079;28;19926;-86
2023/06/30 04:42:14;;;;;;;;;;;;;;;;;;4966900;28;19927;-86
2023/06/30 04:44:42;;;;;;;;;;;;;;;;;;4970472;28;19930;-86
2023/06/30 04:47:09;;;;;;;;;;;;;;;;;;4968200;28;19950;-85
2023/06/30 04:49:37;;;;;;;;;;;;;;;;;;4981996;28;19955;-83
2023/06/30 04:52:09;;;;;;;;;;;;;;;;;;4970783;28;19930;-84
2023/06/30 04:54:37;;;;;;;;;;;;;;;;;;4985429;28;20832;-86
2023/06/30 04:57:05;;;;;;;;;;;;;;;;;;4968088;28;20405;-86
2023/06/30 04:59:39;;;;;;;;;;;;;;;;;;4984024;28;20286;-88
2023/06/30 05:02:09;;;;;;;;;;;;;;;;;;4986673;28;19927;-86
2023/06/30 05:04:37;;;;;;;;;;;;;;;;;;4985548;28;19933;-85
2023/06/30 05:07:06;;;;;;;;;;;;;;;;;;4971111;28;19927;-86
2023/06/30 05:09:33;;;;;;;;;;;;;;;;;;4965918;28;19927;-86
2023/06/30 05:12:07;;;;;;;;;;;;;;;;;;4969065;28;19933;-88
2023/06/30 05:14:35;;;;;;;;;;;;;;;;;;4966197;28;19930;-85
2023/06/30 05:17:03;;;;;;;;;;;;;;;;;;4968815;28;20398;-85
2023/06/30 05:19:30;;;;;;;;;;;;;;;;;;4972091;28;19933;-87
2023/06/30 05:22:05;;;;;;;;;;;;;;;;;;4988672;28;19949;-90
2023/06/30 05:24:34;;;;;;;;;;;;;;;;;;4972149;28;20298;-87
2023/06/30 05:27:05;;;;;;;;;;;;;;;;;;4966727;28;19927;-88
2023/06/30 05:29:33;;;;;;;;;;;;;;;;;;4963442;28;19926;-87
2023/06/30 05:32:04;;;;;;;;;;;;;;;;;;4969167;28;19949;-87
2023/06/30 05:34:32;;;;;;;;;;;;;;;;;;4980043;28;19942;-86
2023/06/30 05:37:00;;;;;;;;;;;;;;;;;;4986050;28;19937;-86
2023/06/30 05:39:28;;;;;;;;;;;;;;;;;;4965416;28;19930;-86
2023/06/30 05:47:38;;;;;;;;;;;;;;;;;;4983731;28;20390;-89
2023/06/30 05:50:06;;;;;;;;;;;;;;;;;;4981001;28;19930;-89
2023/06/30 05:52:50;;;;;;;;;;;;;;;;;;4962124;28;19926;-87
2023/06/30 05:55:29;;;;;;;;;;;;;;;;;;4957647;28;19949;-86
2023/06/30 05:58:11;;;;;;;;;;;;;;;;;;4950458;28;20608;-85
2023/06/30 06:00:41;;;;;;;;;;;;;;;;;;4969032;28;19933;-87
2023/06/30 06:03:15;;;;;;;;;;;;;;;;;;4949520;28;19934;-85
2023/06/30 06:05:47;;;;;;;;;;;;;;;;;;4965834;28;20446;-87
2023/06/30 06:08:16;;;;;;;;;;;;;;;;;;4969631;28;19929;-85
2023/06/30 06:14:11;;;;;;;;;;;;;;;;;;4967499;28;20712;-89
2023/06/30 06:20:18;;;;;;;;;;;;;;;;;;4958170;28;20286;-87
2023/06/30 06:22:51;;;;;;;;;;;;;;;;;;4934244;28;20354;-85
2023/06/30 06:38:39;;;;;;;;;;;;;;;;;;4969814;28;19934;-85
2023/06/30 06:41:06;;;;;;;;;;;;;;;;;;4952209;28;19930;-87
2023/06/30 06:43:34;;;;;;;;;;;;;;;;;;4966418;28;19926;-86
2023/06/30 06:46:02;;;;;;;;;;;;;;;;;;4968710;28;19937;-86
2023/06/30 06:48:32;;;;;;;;;;;;;;;;;;4951503;28;19933;-87
2023/06/30 06:53:55;;;;;;;;;;;;;;;;;;4972847;28;21673;-84
2023/06/30 06:56:47;;;;;;;;;;;;;;;;;;4969066;28;19941;-85
2023/06/30 07:05:45;;;;;;;;;;;;;;;;;;4983143;23;20751;-92
2023/06/30 07:11:50;;;;;;;;;;;;;;;;;;;;;
2023/06/30 07:14:26;;;;;;;;;;;;;;;;;;4950335;28;19933;-92
2023/06/30 07:17:12;;;;;;;;;;;;;;;;;;4970266;28;20044;-91
2023/06/30 07:19:52;;;;;;;;;;;;;;;;;;4951296;28;19930;-90
2023/06/30 07:22:22;;;;;;;;;;;;;;;;;;4957585;28;19926;-91
2023/06/30 07:25:02;;;;;;;;;;;;;;;;;;4908416;28;19934;-90
2023/06/30 07:27:38;;;;;;;;;;;;;;;;;;4939841;28;19941;-90
2023/06/30 07:30:09;;;;;;;;;;;;;;;;;;4935411;28;19941;-87
2023/06/30 07:32:45;;;;;;;;;;;;;;;;;;4937286;28;19965;-89
2023/06/30 07:35:28;;;;;;;;;;;;;;;;;;4928941;28;19934;-91
2023/06/30 07:37:57;;;;;;;;;;;;;;;;;;4941457;28;20389;-90
2023/06/30 07:40:29;;;;;;;;;;;;;;;;;;4938809;28;19934;-89
2023/06/30 07:43:09;;;;;;;;;;;;;;;;;;4919319;28;19941;-92
2023/06/30 07:45:50;;;;;;;;;;;;;;;;;;4926330;28;19926;-90
2023/06/30 07:51:20;;;;;;;;;;;;;;;;;;4925725;28;19934;-92
2023/06/30 07:54:07;;;;;;;;;;;;;;;;;;4930241;28;19941;-90
2023/06/30 07:59:24;;;;;;;;;;;;;;;;;;4923389;28;19934;-91
2023/06/30 08:02:01;;;;;;;;;;;;;;;;;;4936107;28;20426;-91
2023/06/30 08:04:41;;;;;;;;;;;;;;;;;;4923211;28;19973;-92
2023/06/30 08:13:53;;;;;;;;;;;;;;;;;;4927653;28;20979;-92
2023/06/30 08:16:43;;;;;;;;;;;;;;;;;;4931566;28;19941;-92
2023/06/30 08:19:46;;;;;;;;;;;;;;;;;;4934780;28;20867;-91
2023/06/30 08:22:27;;;;;;;;;;;;;;;;;;4931507;28;19941;-91
2023/06/30 08:25:26;;;;;;;;;;;;;;;;;;4899613;28;20896;-92
2023/06/30 08:28:53;;;;;;;;;;;;;;;;;;4940317;28;19942;-90
2023/06/30 08:41:58;;;;;;;;;;;;;;;;;;4865822;29;19931;-92
2023/06/30 08:44:58;;;;;;;;;;;;;;;;;;4865573;29;19936;-91
2023/06/30 08:47:28;;;;;;;;;;;;;;;;;;4868254;29;21269;-90
2023/06/30 08:50:15;;;;;;;;;;;;;;;;;;4860516;29;20319;-91
2023/06/30 08:53:04;;;;;;;;;;;;;;;;;;4869804;29;19942;-91
2023/06/30 08:55:45;;;;;;;;;;;;;;;;;;4858239;29;19935;-90
2023/06/30 08:58:37;;;;;;;;;;;;;;;;;;4852319;29;20642;-91
2023/06/30 09:01:16;;;;;;;;;;;;;;;;;;4856420;29;19948;-92
2023/06/30 09:03:58;;;;;;;;;;;;;;;;;;4855287;29;19934;-91
2023/06/30 09:06:52;;;;;;;;;;;;;;;;;;4866921;29;19936;-90
2023/06/30 09:09:36;;;;;;;;;;;;;;;;;;4859919;29;19943;-90
2023/06/30 09:12:19;;;;;;;;;;;;;;;;;;4863165;29;19936;-91
2023/06/30 09:14:47;;;;;;;;;;;;;;;;;;4926852;28;19935;-92
2023/06/30 09:20:36;;;;;;;;;;;;;;;;;;4938852;28;20507;-92
2023/06/30 09:27:07;;;;;;;;;;;;;;;;;;4874358;29;19979;-91
2023/06/30 09:29:44;;;;;;;;;;;;;;;;;;4917201;29;19935;-91
2023/06/30 09:35:26;;;;;;;;;;;;;;;;;;4918384;28;19939;-91
2023/06/30 09:38:16;;;;;;;;;;;;;;;;;;4906735;29;19930;-90
2023/06/30 09:41:03;;;;;;;;;;;;;;;;;;4914699;29;20032;-91
2023/06/30 09:43:40;;;;;;;;;;;;;;;;;;4911467;28;19934;-91
2023/06/30 09:49:14;;;;;;;;;;;;;;;;;;4915543;29;20526;-90
2023/06/30 09:54:33;;;;;;;;;;;;;;;;;;4908258;28;19942;-90
2023/06/30 09:57:00;;;;;;;;;;;;;;;;;;4890701;29;20373;-89
2023/06/30 10:02:22;;;;;;;;;;;;;;;;;;4913608;28;19934;-91
2023/06/30 10:04:50;;;;;;;;;;;;;;;;;;4918685;28;19931;-91
2023/06/30 10:07:18;;;;;;;;;;;;;;;;;;4911873;29;19936;-91
2023/06/30 10:09:49;;;;;;;;;;;;;;;;;;4894193;29;20307;-90
2023/06/30 10:12:23;;;;;;;;;;;;;;;;;;4899128;29;22033;-89
2023/06/30 10:14:57;;;;;;;;;;;;;;;;;;4912739;29;19934;-89
2023/06/30 10:17:29;;;;;;;;;;;;;;;;;;4907258;28;19941;-91
2023/06/30 10:20:12;;;;;;;;;;;;;;;;;;4908235;29;19946;-91
2023/06/30 10:26:17;;;;;;;;;;;;;;;;;;4915182;28;20298;-89
2023/06/30 10:29:02;;;;;;;;;;;;;;;;;;4913545;29;19941;-91
2023/06/30 10:31:54;;;;;;;;;;;;;;;;;;4909211;28;19946;-90
2023/06/30 10:34:34;;;;;;;;;;;;;;;;;;4906781;28;20265;-90
2023/06/30 10:40:26;;;;;;;;;;;;;;;;;;4913934;28;19938;-92
2023/06/30 10:43:36;;;;;;;;;;;;;;;;;;4911242;29;19934;-91
2023/06/30 10:52:39;;;;;;;;;;;;;;;;;;4900400;29;19935;-90
2023/06/30 10:55:36;;;;;;;;;;;;;;;;;;4904929;28;19935;-91
2023/06/30 10:58:19;;;;;;;;;;;;;;;;;;4907597;28;19941;-91
2023/06/30 11:01:16;;;;;;;;;;;;;;;;;;4910452;28;20499;-89
2023/06/30 11:03:57;;;;;;;;;;;;;;;;;;4908773;28;19941;-89
2023/06/30 11:06:43;;;;;;;;;;;;;;;;;;4922362;28;20299;-91
2023/06/30 11:12:09;;;;;;;;;;;;;;;;;;4864040;29;21119;-89
2023/06/30 11:14:58;;;;;;;;;;;;;;;;;;4867465;29;19942;-92
2023/06/30 11:17:54;;;;;;;;;;;;;;;;;;4858653;29;19938;-90
2023/06/30 11:20:43;;;;;;;;;;;;;;;;;;4872567;29;19935;-90
2023/06/30 11:23:16;;;;;;;;;;;;;;;;;;4850183;29;19936;-91
2023/06/30 11:25:46;;;;;;;;;;;;;;;;;;4872715;29;19943;-89
2023/06/30 11:28:19;;;;;;;;;;;;;;;;;;4865467;29;19935;-89
2023/06/30 11:31:17;;;;;;;;;;;;;;;;;;4867785;29;19935;-90
2023/06/30 11:33:51;;;;;;;;;;;;;;;;;;4867460;29;19935;-90
2023/06/30 11:39:24;;;;;;;;;;;;;;;;;;4834233;29;20018;-89
2023/06/30 11:42:04;;;;;;;;;;;;;;;;;;4846701;29;19942;-90
2023/06/30 11:44:51;;;;;;;;;;;;;;;;;;4868325;29;19935;-90
2023/06/30 11:47:46;;;;;;;;;;;;;;;;;;;;;
2023/06/30 12:24:03;;;;;;;;;;;;;;;;;;4757192;29;19949;-92
2023/06/30 12:26:42;;;;;;;;;;;;;;;;;;4806553;29;19936;-90
2023/06/30 12:29:53;;;;;;;;;;;;;;;;;;4807223;29;20340;-89
2023/06/30 13:50:03;;;;;;;;;;;;;;;;;;1455127;27;20388;-86
2023/06/30 13:52:31;;;;;;;;;;;;;;;;;;4896949;29;19935;-84
2023/06/30 13:55:02;;;;;;;;;;;;;;;;;;4902605;29;19927;-86
2023/06/30 13:57:35;;;;;;;;;;;;;;;;;;4897485;29;19946;-87
2023/06/30 14:00:03;;;;;;;;;;;;;;;;;;4882785;29;19936;-88
2023/06/30 14:02:31;;;;;;;;;;;;;;;;;;4882578;29;19935;-84
2023/06/30 14:05:01;;;;;;;;;;;;;;;;;;4894875;29;19935;-85
2023/06/30 14:07:28;;;;;;;;;;;;;;;;;;4891475;29;19935;-85
2023/06/30 14:09:58;;;;;;;;;;;;;;;;;;4883560;29;19962;-83
2023/06/30 14:12:25;;;;;;;;;;;;;;;;;;4876409;29;20630;-85
2023/06/30 14:14:53;;;;;;;;;;;;;;;;;;4878509;29;19943;-83
2023/06/30 14:17:21;;;;;;;;;;;;;;;;;;4880243;29;19938;-84
2023/06/30 14:19:50;;;;;;;;;;;;;;;;;;4884847;29;19935;-79
2023/06/30 14:22:20;;;;;;;;;;;;;;;;;;4897485;29;19931;-84
2023/06/30 14:24:48;;;;;;;;;;;;;;;;;;4860287;29;20280;-83
2023/06/30 14:27:16;;;;;;;;;;;;;;;;;;4868963;29;19942;-86
2023/06/30 14:29:43;;;;;;;;;;;;;;;;;;4874859;29;19935;-84
2023/06/30 14:32:11;;;;;;;;;;;;;;;;;;4883001;29;19935;-85
2023/06/30 14:34:44;;;;;;;;;;;;;;;;;;4866017;29;19935;-84
2023/06/30 14:37:12;;;;;;;;;;;;;;;;;;4883850;29;19935;-86
2023/06/30 14:39:39;;;;;;;;;;;;;;;;;;4884692;29;19938;-84
2023/06/30 14:42:07;;;;;;;;;;;;;;;;;;4879454;29;19957;-86
2023/06/30 14:44:34;;;;;;;;;;;;;;;;;;4884801;29;19935;-85
2023/06/30 14:47:02;;;;;;;;;;;;;;;;;;4878134;29;19935;-82
2023/06/30 14:49:30;;;;;;;;;;;;;;;;;;4882419;29;19951;-83
2023/06/30 14:51:57;;;;;;;;;;;;;;;;;;4879354;29;19958;-86
2023/06/30 14:54:25;;;;;;;;;;;;;;;;;;4879587;29;19947;-82
2023/06/30 14:56:52;;;;;;;;;;;;;;;;;;4879272;29;20308;-85
2023/06/30 14:59:23;;;;;;;;;;;;;;;;;;4877019;29;20337;-83
2023/06/30 15:01:51;;;;;;;;;;;;;;;;;;4879494;29;20409;-84
2023/06/30 15:04:18;;;;;;;;;;;;;;;;;;4878697;29;19935;-85
2023/06/30 15:06:49;;;;;;;;;;;;;;;;;;4885511;29;19935;-83
2023/06/30 15:09:17;;;;;;;;;;;;;;;;;;4882194;29;19936;-84
2023/06/30 15:11:45;;;;;;;;;;;;;;;;;;4903308;29;20292;-85
2023/06/30 15:14:13;;;;;;;;;;;;;;;;;;4881327;29;19935;-83
2023/06/30 15:16:45;;;;;;;;;;;;;;;;;;4888958;29;19936;-84
2023/06/30 15:19:13;;;;;;;;;;;;;;;;;;4883473;29;19935;-84
2023/06/30 15:21:41;;;;;;;;;;;;;;;;;;4887646;29;20013;-80
2023/06/30 15:24:15;;;;;;;;;;;;;;;;;;4856953;29;19935;-81
2023/06/30 15:26:44;;;;;;;;;;;;;;;;;;4897213;29;19943;-82
2023/06/30 15:29:12;;;;;;;;;;;;;;;;;;4887888;29;19942;-84
2023/06/30 15:31:39;;;;;;;;;;;;;;;;;;4900912;29;19936;-83
2023/06/30 15:34:07;;;;;;;;;;;;;;;;;;4886095;29;19935;-85
2023/06/30 15:36:34;;;;;;;;;;;;;;;;;;4896794;29;20605;-83
2023/06/30 15:39:07;;;;;;;;;;;;;;;;;;4890416;29;20307;-85
2023/06/30 15:41:35;;;;;;;;;;;;;;;;;;4905522;29;19935;-84
2023/06/30 15:44:02;;;;;;;;;;;;;;;;;;4907164;29;19946;-82
2023/06/30 15:46:30;;;;;;;;;;;;;;;;;;4881463;29;20508;-83
2023/06/30 15:48:57;;;;;;;;;;;;;;;;;;4883559;29;19935;-88
2023/06/30 15:51:26;;;;;;;;;;;;;;;;;;4883456;29;19935;-85
2023/06/30 15:53:53;;;;;;;;;;;;;;;;;;4883341;29;20594;-82
2023/06/30 15:56:21;;;;;;;;;;;;;;;;;;4900650;29;20581;-83
2023/06/30 15:58:49;;;;;;;;;;;;;;;;;;4896660;29;20342;-83
2023/06/30 16:01:17;;;;;;;;;;;;;;;;;;4884285;29;19935;-85
2023/06/30 16:03:44;;;;;;;;;;;;;;;;;;4884302;29;19954;-85
2023/06/30 16:06:12;;;;;;;;;;;;;;;;;;4898491;29;19990;-87
2023/06/30 16:08:39;;;;;;;;;;;;;;;;;;4888413;29;19932;-81
2023/06/30 16:11:07;;;;;;;;;;;;;;;;;;4880704;29;19935;-80
2023/06/30 16:13:34;;;;;;;;;;;;;;;;;;4879949;29;20385;-84
2023/06/30 16:16:02;;;;;;;;;;;;;;;;;;4896274;29;19942;-87
2023/06/30 16:18:30;;;;;;;;;;;;;;;;;;4880534;29;19950;-83
2023/06/30 16:20:57;;;;;;;;;;;;;;;;;;4883872;29;20384;-80
2023/06/30 16:23:25;;;;;;;;;;;;;;;;;;4880956;29;19935;-85
2023/06/30 16:25:53;;;;;;;;;;;;;;;;;;4864018;29;19938;-80
2023/06/30 16:28:20;;;;;;;;;;;;;;;;;;4872949;29;20572;-81
2023/06/30 16:30:48;;;;;;;;;;;;;;;;;;4882896;29;20289;-82
2023/06/30 16:33:15;;;;;;;;;;;;;;;;;;4867993;29;19943;-83
2023/06/30 16:35:44;;;;;;;;;;;;;;;;;;4867080;29;20581;-84
2023/06/30 16:38:11;;;;;;;;;;;;;;;;;;4868450;29;20556;-82
2023/06/30 16:40:39;;;;;;;;;;;;;;;;;;4870865;29;19936;-83
2023/06/30 16:43:07;;;;;;;;;;;;;;;;;;4891687;29;20278;-80
2023/06/30 16:45:34;;;;;;;;;;;;;;;;;;4890411;29;20952;-82
2023/06/30 16:48:07;;;;;;;;;;;;;;;;;;4879634;29;19935;-82
2023/06/30 16:50:35;;;;;;;;;;;;;;;;;;4899464;29;19942;-79
2023/06/30 16:53:02;;;;;;;;;;;;;;;;;;4885634;29;19943;-83
2023/06/30 16:55:30;;;;;;;;;;;;;;;;;;4885698;29;19935;-82
2023/06/30 16:57:58;;;;;;;;;;;;;;;;;;4881971;29;19940;-83
2023/06/30 17:00:25;;;;;;;;;;;;;;;;;;4884706;29;19946;-80
2023/06/30 17:02:53;;;;;;;;;;;;;;;;;;4879656;29;19935;-80
2023/06/30 17:05:20;;;;;;;;;;;;;;;;;;4899644;29;19943;-78
2023/06/30 17:07:48;;;;;;;;;;;;;;;;;;4898573;29;19935;-78
2023/06/30 17:10:16;;;;;;;;;;;;;;;;;;4889952;29;19927;-81
2023/06/30 17:12:43;;;;;;;;;;;;;;;;;;4905097;29;19957;-81
2023/06/30 17:15:11;;;;;;;;;;;;;;;;;;4880036;29;19935;-79
2023/06/30 17:17:38;;;;;;;;;;;;;;;;;;4888145;29;20330;-78
2023/06/30 17:20:06;;;;;;;;;;;;;;;;;;4879959;29;19927;-82
2023/06/30 17:22:33;;;;;;;;;;;;;;;;;;4876939;29;20613;-82
2023/06/30 17:25:01;;;;;;;;;;;;;;;;;;4846906;29;19941;-81
2023/06/30 17:27:28;;;;;;;;;;;;;;;;;;4868986;29;20264;-80
2023/06/30 17:29:56;;;;;;;;;;;;;;;;;;4886578;29;19935;-80
2023/06/30 17:32:24;;;;;;;;;;;;;;;;;;4883659;29;20407;-79
2023/06/30 17:34:51;;;;;;;;;;;;;;;;;;4882920;29;20404;-83
2023/06/30 17:37:19;;;;;;;;;;;;;;;;;;4879871;29;19935;-83
2023/06/30 17:39:46;;;;;;;;;;;;;;;;;;4879382;29;19935;-83
2023/06/30 17:42:19;;;;;;;;;;;;;;;;;;4886221;29;20388;-78
2023/06/30 17:44:46;;;;;;;;;;;;;;;;;;4884896;29;19927;-82
2023/06/30 17:47:14;;;;;;;;;;;;;;;;;;4901405;29;20141;-81
2023/06/30 17:49:42;;;;;;;;;;;;;;;;;;4899144;29;19935;-78
2023/06/30 17:52:10;;;;;;;;;;;;;;;;;;4898097;29;19936;-80
2023/06/30 17:54:37;;;;;;;;;;;;;;;;;;4884453;29;19935;-80
2023/06/30 17:57:10;;;;;;;;;;;;;;;;;;4898763;29;19938;-80
2023/06/30 17:59:37;;;;;;;;;;;;;;;;;;4883201;29;19935;-81
2023/06/30 18:02:05;;;;;;;;;;;;;;;;;;4894177;29;20526;-83
2023/06/30 18:04:33;;;;;;;;;;;;;;;;;;4883736;29;20629;-79
2023/06/30 18:07:00;;;;;;;;;;;;;;;;;;4900480;29;19942;-83
2023/06/30 18:09:28;;;;;;;;;;;;;;;;;;4900156;29;19946;-80
2023/06/30 18:11:55;;;;;;;;;;;;;;;;;;4883764;29;20312;-78
2023/06/30 18:14:23;;;;;;;;;;;;;;;;;;4885780;29;19935;-79
2023/06/30 18:16:51;;;;;;;;;;;;;;;;;;4881868;29;20294;-80
2023/06/30 18:19:18;;;;;;;;;;;;;;;;;;4885743;29;21310;-83
2023/06/30 18:21:46;;;;;;;;;;;;;;;;;;4877232;29;19936;-82
2023/06/30 18:24:13;;;;;;;;;;;;;;;;;;4855373;29;20486;-79
2023/06/30 18:26:41;;;;;;;;;;;;;;;;;;4879660;29;19935;-82
2023/06/30 18:29:09;;;;;;;;;;;;;;;;;;4882238;29;19935;-79
2023/06/30 18:31:37;;;;;;;;;;;;;;;;;;4885230;29;19934;-78
2023/06/30 18:34:05;;;;;;;;;;;;;;;;;;4895116;29;20376;-82
2023/06/30 18:36:32;;;;;;;;;;;;;;;;;;4885069;29;19935;-82
2023/06/30 18:39:05;;;;;;;;;;;;;;;;;;4899128;29;19935;-80
2023/06/30 18:41:38;;;;;;;;;;;;;;;;;;4887979;29;19942;-80
2023/06/30 18:44:05;;;;;;;;;;;;;;;;;;4883653;29;19939;-86
2023/06/30 18:46:38;;;;;;;;;;;;;;;;;;4887999;29;19927;-83
2023/06/30 18:49:05;;;;;;;;;;;;;;;;;;4886235;29;19936;-83
2023/06/30 18:51:33;;;;;;;;;;;;;;;;;;4895787;29;19934;-84
2023/06/30 18:54:01;;;;;;;;;;;;;;;;;;4880159;29;20849;-82
2023/06/30 18:56:28;;;;;;;;;;;;;;;;;;4884606;29;19935;-80
2023/06/30 18:58:56;;;;;;;;;;;;;;;;;;4881738;29;19935;-84
2023/06/30 19:01:24;;;;;;;;;;;;;;;;;;4897726;29;20419;-83
2023/06/30 19:03:52;;;;;;;;;;;;;;;;;;4902267;29;20151;-83
2023/06/30 19:06:19;;;;;;;;;;;;;;;;;;4888869;29;19927;-82
2023/06/30 19:08:47;;;;;;;;;;;;;;;;;;4881004;29;19939;-81
2023/06/30 19:11:15;;;;;;;;;;;;;;;;;;4901900;29;19990;-80
2023/06/30 19:13:42;;;;;;;;;;;;;;;;;;4883324;29;20710;-79
2023/06/30 19:16:10;;;;;;;;;;;;;;;;;;4886517;29;21290;-82
2023/06/30 19:18:38;;;;;;;;;;;;;;;;;;4882742;29;20892;-84
2023/06/30 19:21:06;;;;;;;;;;;;;;;;;;4884576;29;20407;-80
2023/06/30 19:23:40;;;;;;;;;;;;;;;;;;4859894;29;20017;-83
2023/06/30 19:26:08;;;;;;;;;;;;;;;;;;4906818;29;19927;-82
2023/06/30 19:28:36;;;;;;;;;;;;;;;;;;4900801;29;20896;-79
2023/06/30 19:31:03;;;;;;;;;;;;;;;;;;4893043;29;19946;-82
2023/06/30 19:33:36;;;;;;;;;;;;;;;;;;4881602;29;19935;-84
2023/06/30 19:36:03;;;;;;;;;;;;;;;;;;4898109;29;19935;-82
2023/06/30 19:38:31;;;;;;;;;;;;;;;;;;4889584;29;19950;-79
2023/06/30 19:40:59;;;;;;;;;;;;;;;;;;4898007;29;20829;-83
2023/06/30 19:43:26;;;;;;;;;;;;;;;;;;4885200;29;19942;-84
2023/06/30 19:45:54;;;;;;;;;;;;;;;;;;4882162;29;19935;-82
2023/06/30 19:48:21;;;;;;;;;;;;;;;;;;4882895;29;20775;-81
2023/06/30 19:50:49;;;;;;;;;;;;;;;;;;4883603;29;20360;-82
2023/06/30 19:53:17;;;;;;;;;;;;;;;;;;4898437;29;19943;-82
2023/06/30 19:55:49;;;;;;;;;;;;;;;;;;4886604;29;19928;-83
2023/06/30 19:58:17;;;;;;;;;;;;;;;;;;4887878;29;19942;-83
2023/06/30 20:00:45;;;;;;;;;;;;;;;;;;4882409;29;19939;-84
2023/06/30 20:03:18;;;;;;;;;;;;;;;;;;4883007;29;19935;-79
2023/06/30 20:05:45;;;;;;;;;;;;;;;;;;4889389;29;19935;-81
2023/06/30 20:08:13;;;;;;;;;;;;;;;;;;4902231;29;20384;-83
2023/06/30 20:10:41;;;;;;;;;;;;;;;;;;4885571;29;19942;-83
2023/06/30 20:13:08;;;;;;;;;;;;;;;;;;4888335;29;19934;-83
2023/06/30 20:15:36;;;;;;;;;;;;;;;;;;4881900;29;20420;-84
2023/06/30 20:18:03;;;;;;;;;;;;;;;;;;4900344;29;19942;-83
2023/06/30 20:20:31;;;;;;;;;;;;;;;;;;4886540;29;19943;-85
2023/06/30 20:22:59;;;;;;;;;;;;;;;;;;4882616;29;20614;-81
2023/06/30 20:25:27;;;;;;;;;;;;;;;;;;4859863;29;19938;-85
2023/06/30 20:27:54;;;;;;;;;;;;;;;;;;4878941;29;19939;-84
2023/06/30 20:30:22;;;;;;;;;;;;;;;;;;4897069;29;19935;-82
2023/06/30 20:32:50;;;;;;;;;;;;;;;;;;4900797;29;19935;-79
2023/06/30 20:35:18;;;;;;;;;;;;;;;;;;4893485;29;19935;-81
2023/06/30 20:37:46;;;;;;;;;;;;;;;;;;4886580;29;19935;-84
2023/06/30 20:40:19;;;;;;;;;;;;;;;;;;4887513;29;19935;-81
2023/06/30 20:42:46;;;;;;;;;;;;;;;;;;4886269;29;19943;-83
2023/06/30 20:45:14;;;;;;;;;;;;;;;;;;4887507;29;19946;-82
2023/06/30 20:47:47;;;;;;;;;;;;;;;;;;4882685;29;20316;-79
2023/06/30 20:50:15;;;;;;;;;;;;;;;;;;4896688;29;19935;-79
2023/06/30 20:52:42;;;;;;;;;;;;;;;;;;4902358;29;20582;-80
2023/06/30 20:55:10;;;;;;;;;;;;;;;;;;4888688;29;19935;-82
2023/06/30 20:57:38;;;;;;;;;;;;;;;;;;4891229;29;20414;-79
2023/06/30 21:00:10;;;;;;;;;;;;;;;;;;4892890;29;20579;-79